Aydin, Turkey
Current Conditions -  °F | °C
As of 9:50 AM on Friday 24 Oct 2014 (Local Time) from LTFE Reporting Station
Scattered Clouds Scattered Clouds  
Wind Chill: 64°   Ceiling: Unl
Heat Index: 64°   Visibility: 4mi
Dew Point: 61°   Wind: 6mph
Humidity: 88%   Direction: 50°NE
Pressure: 29.88"   Gusts: NA
Location:  37.86°N, 27.84°E
Report Text: LTFE 240650Z 05005KT 020V080 7000 SCT030 18/16 Q1012 NOSIG
Loading
Personal Weather Stations






























Interactive Weather Map New forecast layout! Learn more

10-Day Weather Forecast

Advertisements
Track Severe Weather on mobile